sensor_id;sensor_type;location;lat;lon;timestamp;pressure;altitude;pressure_sealevel;temperature
16956;BMP180;8594;52.052;8.354;2023-04-25T00:02:04;99810.00;;;9.90
16956;BMP180;8594;52.052;8.354;2023-04-25T00:04:32;99810.00;;;10.00
16956;BMP180;8594;52.052;8.354;2023-04-25T00:06:59;99809.00;;;10.10
16956;BMP180;8594;52.052;8.354;2023-04-25T00:09:28;99808.00;;;9.90
16956;BMP180;8594;52.052;8.354;2023-04-25T00:11:55;99807.00;;;10.00
16956;BMP180;8594;52.052;8.354;2023-04-25T00:14:21;99827.00;;;10.50
16956;BMP180;8594;52.052;8.354;2023-04-25T00:16:49;99824.00;;;10.10
16956;BMP180;8594;52.052;8.354;2023-04-25T00:19:18;99824.00;;;10.00
16956;BMP180;8594;52.052;8.354;2023-04-25T00:21:45;99825.00;;;10.40
16956;BMP180;8594;52.052;8.354;2023-04-25T00:24:12;99817.00;;;10.10
16956;BMP180;8594;52.052;8.354;2023-04-25T00:26:39;99821.00;;;10.40
16956;BMP180;8594;52.052;8.354;2023-04-25T00:29:06;99819.00;;;10.50
16956;BMP180;8594;52.052;8.354;2023-04-25T00:31:32;99817.00;;;10.40
16956;BMP180;8594;52.052;8.354;2023-04-25T00:33:59;99817.00;;;10.20
16956;BMP180;8594;52.052;8.354;2023-04-25T00:36:27;99817.00;;;10.40
16956;BMP180;8594;52.052;8.354;2023-04-25T00:38:55;99807.00;;;9.70
16956;BMP180;8594;52.052;8.354;2023-04-25T00:41:23;99807.00;;;10.20
16956;BMP180;8594;52.052;8.354;2023-04-25T00:43:53;99821.00;;;10.10
16956;BMP180;8594;52.052;8.354;2023-04-25T00:46:21;99812.00;;;10.00
16956;BMP180;8594;52.052;8.354;2023-04-25T00:48:47;99818.00;;;10.30
16956;BMP180;8594;52.052;8.354;2023-04-25T00:51:20;99811.00;;;10.10
16956;BMP180;8594;52.052;8.354;2023-04-25T00:53:49;99806.00;;;9.80
16956;BMP180;8594;52.052;8.354;2023-04-25T00:56:16;99813.00;;;10.10
16956;BMP180;8594;52.052;8.354;2023-04-25T00:58:44;99819.00;;;10.40
16956;BMP180;8594;52.052;8.354;2023-04-25T01:01:12;99819.00;;;10.10
16956;BMP180;8594;52.052;8.354;2023-04-25T01:03:40;99807.00;;;9.80
16956;BMP180;8594;52.052;8.354;2023-04-25T01:06:08;99808.00;;;9.70
16956;BMP180;8594;52.052;8.354;2023-04-25T01:08:37;99818.00;;;9.90
16956;BMP180;8594;52.052;8.354;2023-04-25T01:11:05;99817.00;;;9.70
16956;BMP180;8594;52.052;8.354;2023-04-25T01:13:34;99812.00;;;9.80
16956;BMP180;8594;52.052;8.354;2023-04-25T01:16:02;99813.00;;;9.40
16956;BMP180;8594;52.052;8.354;2023-04-25T01:18:29;99821.00;;;10.20
16956;BMP180;8594;52.052;8.354;2023-04-25T01:21:02;99812.00;;;10.10
16956;BMP180;8594;52.052;8.354;2023-04-25T01:23:32;99811.00;;;10.00
16956;BMP180;8594;52.052;8.354;2023-04-25T01:26:00;99811.00;;;9.70
16956;BMP180;8594;52.052;8.354;2023-04-25T01:28:27;99808.00;;;9.70
16956;BMP180;8594;52.052;8.354;2023-04-25T01:30:56;99807.00;;;9.70
16956;BMP180;8594;52.052;8.354;2023-04-25T01:33:23;99813.00;;;9.90
16956;BMP180;8594;52.052;8.354;2023-04-25T01:35:50;99813.00;;;9.80
16956;BMP180;8594;52.052;8.354;2023-04-25T01:38:18;99811.00;;;9.80
16956;BMP180;8594;52.052;8.354;2023-04-25T01:40:45;99813.00;;;9.70
16956;BMP180;8594;52.052;8.354;2023-04-25T01:43:13;99809.00;;;9.80
16956;BMP180;8594;52.052;8.354;2023-04-25T01:45:40;99824.00;;;10.00
16956;BMP180;8594;52.052;8.354;2023-04-25T01:48:07;99828.00;;;9.80
16956;BMP180;8594;52.052;8.354;2023-04-25T01:50:35;99837.00;;;9.70
16956;BMP180;8594;52.052;8.354;2023-04-25T01:53:02;99833.00;;;9.50
16956;BMP180;8594;52.052;8.354;2023-04-25T01:55:30;99834.00;;;9.70
16956;BMP180;8594;52.052;8.354;2023-04-25T01:57:57;99831.00;;;9.90
16956;BMP180;8594;52.052;8.354;2023-04-25T02:00:24;99839.00;;;10.10
16956;BMP180;8594;52.052;8.354;2023-04-25T02:02:51;99837.00;;;9.70
16956;BMP180;8594;52.052;8.354;2023-04-25T02:05:19;99846.00;;;9.70
16956;BMP180;8594;52.052;8.354;2023-04-25T02:07:47;99852.00;;;9.70
16956;BMP180;8594;52.052;8.354;2023-04-25T02:10:14;99840.00;;;10.10
16956;BMP180;8594;52.052;8.354;2023-04-25T02:12:42;99843.00;;;9.90
16956;BMP180;8594;52.052;8.354;2023-04-25T02:15:10;99855.00;;;10.20
16956;BMP180;8594;52.052;8.354;2023-04-25T02:17:37;99848.00;;;9.80
16956;BMP180;8594;52.052;8.354;2023-04-25T02:20:05;99862.00;;;10.20
16956;BMP180;8594;52.052;8.354;2023-04-25T02:22:33;99852.00;;;10.30
16956;BMP180;8594;52.052;8.354;2023-04-25T02:25:01;99854.00;;;10.30
16956;BMP180;8594;52.052;8.354;2023-04-25T02:27:30;99851.00;;;9.60
16956;BMP180;8594;52.052;8.354;2023-04-25T02:29:58;99858.00;;;9.00
16956;BMP180;8594;52.052;8.354;2023-04-25T02:32:25;99861.00;;;8.90
16956;BMP180;8594;52.052;8.354;2023-04-25T02:34:52;99852.00;;;8.90
16956;BMP180;8594;52.052;8.354;2023-04-25T02:37:19;99851.00;;;9.00
16956;BMP180;8594;52.052;8.354;2023-04-25T02:39:46;99852.00;;;8.70
16956;BMP180;8594;52.052;8.354;2023-04-25T02:42:12;99857.00;;;8.80
16956;BMP180;8594;52.052;8.354;2023-04-25T02:44:39;99868.00;;;8.70
16956;BMP180;8594;52.052;8.354;2023-04-25T02:47:07;99859.00;;;9.00
16956;BMP180;8594;52.052;8.354;2023-04-25T02:49:34;99852.00;;;8.90
16956;BMP180;8594;52.052;8.354;2023-04-25T02:52:01;99854.00;;;9.30
16956;BMP180;8594;52.052;8.354;2023-04-25T02:54:28;99862.00;;;9.00
16956;BMP180;8594;52.052;8.354;2023-04-25T02:56:54;99856.00;;;9.20
16956;BMP180;8594;52.052;8.354;2023-04-25T02:59:21;99870.00;;;9.10
16956;BMP180;8594;52.052;8.354;2023-04-25T03:01:48;99861.00;;;9.40
16956;BMP180;8594;52.052;8.354;2023-04-25T03:04:16;99862.00;;;9.00
16956;BMP180;8594;52.052;8.354;2023-04-25T03:06:44;99866.00;;;9.30
16956;BMP180;8594;52.052;8.354;2023-04-25T03:09:11;99861.00;;;9.50
16956;BMP180;8594;52.052;8.354;2023-04-25T03:11:39;99872.00;;;9.90
16956;BMP180;8594;52.052;8.354;2023-04-25T03:14:05;99869.00;;;9.50
16956;BMP180;8594;52.052;8.354;2023-04-25T03:16:32;99872.00;;;9.80
16956;BMP180;8594;52.052;8.354;2023-04-25T03:18:59;99872.00;;;10.20
16956;BMP180;8594;52.052;8.354;2023-04-25T03:21:27;99874.00;;;10.10
16956;BMP180;8594;52.052;8.354;2023-04-25T03:23:54;99876.00;;;10.10
16956;BMP180;8594;52.052;8.354;2023-04-25T03:26:20;99887.00;;;9.80
16956;BMP180;8594;52.052;8.354;2023-04-25T03:28:47;99877.00;;;9.60
16956;BMP180;8594;52.052;8.354;2023-04-25T03:31:14;99887.00;;;9.80
16956;BMP180;8594;52.052;8.354;2023-04-25T03:33:41;99885.00;;;9.70
16956;BMP180;8594;52.052;8.354;2023-04-25T03:36:08;99896.00;;;9.80
16956;BMP180;8594;52.052;8.354;2023-04-25T03:38:37;99893.00;;;9.90
16956;BMP180;8594;52.052;8.354;2023-04-25T03:41:04;99890.00;;;9.90
16956;BMP180;8594;52.052;8.354;2023-04-25T03:43:30;99896.00;;;10.00
16956;BMP180;8594;52.052;8.354;2023-04-25T03:45:57;99899.00;;;10.10
16956;BMP180;8594;52.052;8.354;2023-04-25T03:48:25;99909.00;;;10.20
16956;BMP180;8594;52.052;8.354;2023-04-25T03:50:52;99912.00;;;10.00
16956;BMP180;8594;52.052;8.354;2023-04-25T03:53:18;99915.00;;;10.20
16956;BMP180;8594;52.052;8.354;2023-04-25T03:55:47;99920.00;;;10.20
16956;BMP180;8594;52.052;8.354;2023-04-25T03:58:14;99924.00;;;10.10
16956;BMP180;8594;52.052;8.354;2023-04-25T04:00:41;99928.00;;;10.00
16956;BMP180;8594;52.052;8.354;2023-04-25T04:03:07;99925.00;;;9.80
16956;BMP180;8594;52.052;8.354;2023-04-25T04:05:34;99935.00;;;9.60
16956;BMP180;8594;52.052;8.354;2023-04-25T04:08:02;99935.00;;;9.60
16956;BMP180;8594;52.052;8.354;2023-04-25T04:10:29;99938.00;;;9.80
16956;BMP180;8594;52.052;8.354;2023-04-25T04:12:57;99934.00;;;9.70
16956;BMP180;8594;52.052;8.354;2023-04-25T04:15:24;99944.00;;;9.70
16956;BMP180;8594;52.052;8.354;2023-04-25T04:17:51;99943.00;;;9.80
16956;BMP180;8594;52.052;8.354;2023-04-25T04:20:17;99954.00;;;9.60
16956;BMP180;8594;52.052;8.354;2023-04-25T04:22:44;99949.00;;;9.30
16956;BMP180;8594;52.052;8.354;2023-04-25T04:25:11;99953.00;;;9.50
16956;BMP180;8594;52.052;8.354;2023-04-25T04:27:38;99947.00;;;9.30
16956;BMP180;8594;52.052;8.354;2023-04-25T04:30:08;99960.00;;;9.00
16956;BMP180;8594;52.052;8.354;2023-04-25T04:32:35;99955.00;;;9.00
16956;BMP180;8594;52.052;8.354;2023-04-25T04:35:03;99953.00;;;9.30
16956;BMP180;8594;52.052;8.354;2023-04-25T04:37:32;99959.00;;;9.70
16956;BMP180;8594;52.052;8.354;2023-04-25T04:39:59;99960.00;;;9.70
16956;BMP180;8594;52.052;8.354;2023-04-25T04:42:27;99968.00;;;9.60
16956;BMP180;8594;52.052;8.354;2023-04-25T04:44:54;99970.00;;;9.30
16956;BMP180;8594;52.052;8.354;2023-04-25T04:47:22;99973.00;;;9.70
16956;BMP180;8594;52.052;8.354;2023-04-25T04:49:49;99965.00;;;9.60
16956;BMP180;8594;52.052;8.354;2023-04-25T04:52:16;99965.00;;;9.90
16956;BMP180;8594;52.052;8.354;2023-04-25T04:54:43;99978.00;;;9.50
16956;BMP180;8594;52.052;8.354;2023-04-25T04:57:10;99982.00;;;9.80
16956;BMP180;8594;52.052;8.354;2023-04-25T04:59:37;99982.00;;;9.70
16956;BMP180;8594;52.052;8.354;2023-04-25T05:02:03;99981.00;;;9.90
16956;BMP180;8594;52.052;8.354;2023-04-25T05:04:31;99980.00;;;9.50
16956;BMP180;8594;52.052;8.354;2023-04-25T05:06:58;99985.00;;;9.30
16956;BMP180;8594;52.052;8.354;2023-04-25T05:09:26;99982.00;;;9.20
16956;BMP180;8594;52.052;8.354;2023-04-25T05:11:52;99987.00;;;9.30
16956;BMP180;8594;52.052;8.354;2023-04-25T05:14:20;99992.00;;;9.10
16956;BMP180;8594;52.052;8.354;2023-04-25T05:16:47;100004.00;;;9.50
16956;BMP180;8594;52.052;8.354;2023-04-25T05:19:14;100003.00;;;9.20
16956;BMP180;8594;52.052;8.354;2023-04-25T05:21:42;100004.00;;;9.50
16956;BMP180;8594;52.052;8.354;2023-04-25T05:24:08;100005.00;;;9.10
16956;BMP180;8594;52.052;8.354;2023-04-25T05:26:35;99999.00;;;9.40
16956;BMP180;8594;52.052;8.354;2023-04-25T05:29:02;100015.00;;;9.40
16956;BMP180;8594;52.052;8.354;2023-04-25T05:31:29;100018.00;;;9.30
16956;BMP180;8594;52.052;8.354;2023-04-25T05:33:55;100018.00;;;9.80
16956;BMP180;8594;52.052;8.354;2023-04-25T05:36:22;100014.00;;;9.80
16956;BMP180;8594;52.052;8.354;2023-04-25T05:38:50;100018.00;;;9.60
16956;BMP180;8594;52.052;8.354;2023-04-25T05:41:17;100018.00;;;9.80
16956;BMP180;8594;52.052;8.354;2023-04-25T05:43:44;100026.00;;;10.00
16956;BMP180;8594;52.052;8.354;2023-04-25T05:46:14;100019.00;;;9.80
16956;BMP180;8594;52.052;8.354;2023-04-25T05:48:41;100026.00;;;9.60
16956;BMP180;8594;52.052;8.354;2023-04-25T05:51:07;100037.00;;;9.80
16956;BMP180;8594;52.052;8.354;2023-04-25T05:53:34;100038.00;;;9.90
16956;BMP180;8594;52.052;8.354;2023-04-25T05:56:03;100037.00;;;9.80
16956;BMP180;8594;52.052;8.354;2023-04-25T05:58:29;100040.00;;;9.50
16956;BMP180;8594;52.052;8.354;2023-04-25T06:00:56;100044.00;;;9.80
16956;BMP180;8594;52.052;8.354;2023-04-25T06:03:23;100057.00;;;10.10
16956;BMP180;8594;52.052;8.354;2023-04-25T06:05:50;100049.00;;;9.70
16956;BMP180;8594;52.052;8.354;2023-04-25T06:08:17;100049.00;;;9.90
16956;BMP180;8594;52.052;8.354;2023-04-25T06:10:44;100057.00;;;10.30
16956;BMP180;8594;52.052;8.354;2023-04-25T06:13:12;100060.00;;;10.30
16956;BMP180;8594;52.052;8.354;2023-04-25T06:15:39;100056.00;;;10.20
16956;BMP180;8594;52.052;8.354;2023-04-25T06:18:06;100054.00;;;10.50
16956;BMP180;8594;52.052;8.354;2023-04-25T06:20:33;100061.00;;;10.40
16956;BMP180;8594;52.052;8.354;2023-04-25T06:23:00;100059.00;;;10.00
16956;BMP180;8594;52.052;8.354;2023-04-25T06:25:27;100060.00;;;10.30
16956;BMP180;8594;52.052;8.354;2023-04-25T06:27:54;100063.00;;;10.40
16956;BMP180;8594;52.052;8.354;2023-04-25T06:30:23;100066.00;;;9.80
16956;BMP180;8594;52.052;8.354;2023-04-25T06:32:51;100063.00;;;9.90
16956;BMP180;8594;52.052;8.354;2023-04-25T06:35:18;100075.00;;;10.00
16956;BMP180;8594;52.052;8.354;2023-04-25T06:37:45;100073.00;;;9.90
16956;BMP180;8594;52.052;8.354;2023-04-25T06:40:12;100078.00;;;10.40
16956;BMP180;8594;52.052;8.354;2023-04-25T06:42:38;100085.00;;;10.40
16956;BMP180;8594;52.052;8.354;2023-04-25T06:45:07;100083.00;;;10.30
16956;BMP180;8594;52.052;8.354;2023-04-25T06:47:35;100083.00;;;10.00
16956;BMP180;8594;52.052;8.354;2023-04-25T06:50:02;100083.00;;;10.10
16956;BMP180;8594;52.052;8.354;2023-04-25T06:52:29;100081.00;;;10.50
16956;BMP180;8594;52.052;8.354;2023-04-25T06:54:56;100082.00;;;10.30
16956;BMP180;8594;52.052;8.354;2023-04-25T06:57:23;100084.00;;;10.20
16956;BMP180;8594;52.052;8.354;2023-04-25T06:59:51;100093.00;;;10.60
16956;BMP180;8594;52.052;8.354;2023-04-25T07:02:17;100089.00;;;9.80
16956;BMP180;8594;52.052;8.354;2023-04-25T07:04:45;100095.00;;;10.40
16956;BMP180;8594;52.052;8.354;2023-04-25T07:07:12;100101.00;;;10.40
16956;BMP180;8594;52.052;8.354;2023-04-25T07:09:39;100099.00;;;10.60
16956;BMP180;8594;52.052;8.354;2023-04-25T07:12:06;100104.00;;;10.30
16956;BMP180;8594;52.052;8.354;2023-04-25T07:14:33;100106.00;;;10.80
16956;BMP180;8594;52.052;8.354;2023-04-25T07:16:59;100105.00;;;10.70
16956;BMP180;8594;52.052;8.354;2023-04-25T07:19:26;100102.00;;;10.70
16956;BMP180;8594;52.052;8.354;2023-04-25T07:21:56;100114.00;;;10.70
16956;BMP180;8594;52.052;8.354;2023-04-25T07:24:23;100114.00;;;10.70
16956;BMP180;8594;52.052;8.354;2023-04-25T07:26:50;100116.00;;;10.80
16956;BMP180;8594;52.052;8.354;2023-04-25T07:29:16;100126.00;;;10.60
16956;BMP180;8594;52.052;8.354;2023-04-25T07:31:43;100119.00;;;10.80
16956;BMP180;8594;52.052;8.354;2023-04-25T07:34:10;100120.00;;;10.90
16956;BMP180;8594;52.052;8.354;2023-04-25T07:36:37;100121.00;;;11.00
16956;BMP180;8594;52.052;8.354;2023-04-25T07:39:05;100118.00;;;10.80
16956;BMP180;8594;52.052;8.354;2023-04-25T07:41:32;100127.00;;;11.40
16956;BMP180;8594;52.052;8.354;2023-04-25T07:43:58;100121.00;;;11.10
16956;BMP180;8594;52.052;8.354;2023-04-25T07:46:25;100131.00;;;11.60
16956;BMP180;8594;52.052;8.354;2023-04-25T07:48:52;100134.00;;;11.20
16956;BMP180;8594;52.052;8.354;2023-04-25T07:51:19;100140.00;;;11.40
16956;BMP180;8594;52.052;8.354;2023-04-25T07:53:47;100142.00;;;11.40
16956;BMP180;8594;52.052;8.354;2023-04-25T07:56:15;100140.00;;;11.50
16956;BMP180;8594;52.052;8.354;2023-04-25T07:58:42;100141.00;;;11.80
16956;BMP180;8594;52.052;8.354;2023-04-25T08:01:09;100140.00;;;12.30
16956;BMP180;8594;52.052;8.354;2023-04-25T08:03:36;100147.00;;;12.30
16956;BMP180;8594;52.052;8.354;2023-04-25T08:06:02;100147.00;;;11.80
16956;BMP180;8594;52.052;8.354;2023-04-25T08:08:30;100150.00;;;10.60
16956;BMP180;8594;52.052;8.354;2023-04-25T08:10:57;100150.00;;;11.50
16956;BMP180;8594;52.052;8.354;2023-04-25T08:13:25;100156.00;;;11.30
16956;BMP180;8594;52.052;8.354;2023-04-25T08:15:52;100163.00;;;11.80
16956;BMP180;8594;52.052;8.354;2023-04-25T08:18:18;100165.00;;;12.10
16956;BMP180;8594;52.052;8.354;2023-04-25T08:20:45;100167.00;;;12.20
16956;BMP180;8594;52.052;8.354;2023-04-25T08:23:12;100171.00;;;11.70
16956;BMP180;8594;52.052;8.354;2023-04-25T08:25:39;100173.00;;;11.50
16956;BMP180;8594;52.052;8.354;2023-04-25T08:28:06;100176.00;;;12.40
16956;BMP180;8594;52.052;8.354;2023-04-25T08:30:34;100175.00;;;12.20
16956;BMP180;8594;52.052;8.354;2023-04-25T08:33:01;100190.00;;;11.90
16956;BMP180;8594;52.052;8.354;2023-04-25T08:35:28;100180.00;;;11.50
16956;BMP180;8594;52.052;8.354;2023-04-25T08:37:55;100184.00;;;11.30
16956;BMP180;8594;52.052;8.354;2023-04-25T08:40:23;100193.00;;;11.50
16956;BMP180;8594;52.052;8.354;2023-04-25T08:42:53;100186.00;;;12.00
16956;BMP180;8594;52.052;8.354;2023-04-25T08:45:21;100182.00;;;11.80
16956;BMP180;8594;52.052;8.354;2023-04-25T08:47:52;100200.00;;;12.80
16956;BMP180;8594;52.052;8.354;2023-04-25T08:50:19;100198.00;;;11.90
16956;BMP180;8594;52.052;8.354;2023-04-25T08:52:50;100191.00;;;12.90
16956;BMP180;8594;52.052;8.354;2023-04-25T08:55:19;100198.00;;;13.50
16956;BMP180;8594;52.052;8.354;2023-04-25T08:57:47;100212.00;;;13.00
16956;BMP180;8594;52.052;8.354;2023-04-25T09:00:15;100225.00;;;12.90
16956;BMP180;8594;52.052;8.354;2023-04-25T09:02:42;100224.00;;;13.30
16956;BMP180;8594;52.052;8.354;2023-04-25T09:05:13;100217.00;;;13.20
16956;BMP180;8594;52.052;8.354;2023-04-25T09:07:40;100230.00;;;13.00
16956;BMP180;8594;52.052;8.354;2023-04-25T09:10:08;100217.00;;;12.80
16956;BMP180;8594;52.052;8.354;2023-04-25T09:12:35;100235.00;;;13.00
16956;BMP180;8594;52.052;8.354;2023-04-25T09:15:06;100224.00;;;13.10
16956;BMP180;8594;52.052;8.354;2023-04-25T09:17:33;100229.00;;;14.90
16956;BMP180;8594;52.052;8.354;2023-04-25T09:20:08;100243.00;;;14.20
16956;BMP180;8594;52.052;8.354;2023-04-25T09:22:38;100242.00;;;14.50
16956;BMP180;8594;52.052;8.354;2023-04-25T09:25:09;100251.00;;;14.50
16956;BMP180;8594;52.052;8.354;2023-04-25T09:27:49;100259.00;;;13.70
16956;BMP180;8594;52.052;8.354;2023-04-25T09:30:17;100257.00;;;13.70
16956;BMP180;8594;52.052;8.354;2023-04-25T09:32:44;100253.00;;;13.70
16956;BMP180;8594;52.052;8.354;2023-04-25T09:35:23;100258.00;;;14.00
16956;BMP180;8594;52.052;8.354;2023-04-25T09:37:51;100266.00;;;13.30
16956;BMP180;8594;52.052;8.354;2023-04-25T09:40:18;100264.00;;;13.30
16956;BMP180;8594;52.052;8.354;2023-04-25T09:42:45;100272.00;;;12.90
16956;BMP180;8594;52.052;8.354;2023-04-25T09:45:13;100268.00;;;13.10
16956;BMP180;8594;52.052;8.354;2023-04-25T09:47:40;100269.00;;;13.10
16956;BMP180;8594;52.052;8.354;2023-04-25T09:50:14;100278.00;;;12.20
16956;BMP180;8594;52.052;8.354;2023-04-25T09:52:41;100279.00;;;12.80
16956;BMP180;8594;52.052;8.354;2023-04-25T09:55:10;100281.00;;;11.80
16956;BMP180;8594;52.052;8.354;2023-04-25T09:57:37;100288.00;;;12.00
16956;BMP180;8594;52.052;8.354;2023-04-25T10:00:07;100291.00;;;12.00
16956;BMP180;8594;52.052;8.354;2023-04-25T10:02:42;100306.00;;;11.90
16956;BMP180;8594;52.052;8.354;2023-04-25T10:05:10;100309.00;;;11.00
16956;BMP180;8594;52.052;8.354;2023-04-25T10:07:38;100313.00;;;11.20
16956;BMP180;8594;52.052;8.354;2023-04-25T10:10:08;100311.00;;;10.90
16956;BMP180;8594;52.052;8.354;2023-04-25T10:12:37;100310.00;;;11.10
16956;BMP180;8594;52.052;8.354;2023-04-25T10:15:06;100310.00;;;10.90
16956;BMP180;8594;52.052;8.354;2023-04-25T10:17:35;100309.00;;;11.20
16956;BMP180;8594;52.052;8.354;2023-04-25T10:20:03;100312.00;;;10.60
16956;BMP180;8594;52.052;8.354;2023-04-25T10:22:36;100317.00;;;11.50
16956;BMP180;8594;52.052;8.354;2023-04-25T10:25:05;100299.00;;;12.20
16956;BMP180;8594;52.052;8.354;2023-04-25T10:27:35;100308.00;;;12.40
16956;BMP180;8594;52.052;8.354;2023-04-25T10:30:05;100300.00;;;13.30
16956;BMP180;8594;52.052;8.354;2023-04-25T10:32:35;100302.00;;;13.90
16956;BMP180;8594;52.052;8.354;2023-04-25T10:35:15;100307.00;;;14.80
16956;BMP180;8594;52.052;8.354;2023-04-25T10:38:03;100308.00;;;14.60
16956;BMP180;8594;52.052;8.354;2023-04-25T10:40:31;100310.00;;;14.50
16956;BMP180;8594;52.052;8.354;2023-04-25T10:43:37;100305.00;;;13.20
16956;BMP180;8594;52.052;8.354;2023-04-25T10:46:17;100302.00;;;13.50
16956;BMP180;8594;52.052;8.354;2023-04-25T10:48:49;100308.00;;;13.40
16956;BMP180;8594;52.052;8.354;2023-04-25T10:51:20;100297.00;;;12.70
16956;BMP180;8594;52.052;8.354;2023-04-25T10:53:56;100306.00;;;13.10
16956;BMP180;8594;52.052;8.354;2023-04-25T10:56:25;100305.00;;;13.00
16956;BMP180;8594;52.052;8.354;2023-04-25T10:59:05;100299.00;;;13.50
16956;BMP180;8594;52.052;8.354;2023-04-25T11:01:39;100302.00;;;13.00
16956;BMP180;8594;52.052;8.354;2023-04-25T11:04:20;100303.00;;;13.70
16956;BMP180;8594;52.052;8.354;2023-04-25T11:07:03;100303.00;;;13.90
16956;BMP180;8594;52.052;8.354;2023-04-25T11:09:33;100308.00;;;14.20
16956;BMP180;8594;52.052;8.354;2023-04-25T11:12:00;100298.00;;;13.90
16956;BMP180;8594;52.052;8.354;2023-04-25T11:14:28;100315.00;;;13.70
16956;BMP180;8594;52.052;8.354;2023-04-25T11:16:56;100306.00;;;13.10
16956;BMP180;8594;52.052;8.354;2023-04-25T11:19:25;100313.00;;;13.50
16956;BMP180;8594;52.052;8.354;2023-04-25T11:21:55;100312.00;;;12.90
16956;BMP180;8594;52.052;8.354;2023-04-25T11:24:26;100311.00;;;12.80
16956;BMP180;8594;52.052;8.354;2023-04-25T11:26:53;100309.00;;;13.00
16956;BMP180;8594;52.052;8.354;2023-04-25T11:29:22;100322.00;;;13.10
16956;BMP180;8594;52.052;8.354;2023-04-25T11:31:50;100331.00;;;12.90
16956;BMP180;8594;52.052;8.354;2023-04-25T11:34:18;100330.00;;;12.70
16956;BMP180;8594;52.052;8.354;2023-04-25T11:36:45;100338.00;;;12.10
16956;BMP180;8594;52.052;8.354;2023-04-25T11:39:12;100346.00;;;11.60
16956;BMP180;8594;52.052;8.354;2023-04-25T11:41:41;100346.00;;;11.40
16956;BMP180;8594;52.052;8.354;2023-04-25T11:44:08;100360.00;;;10.80
16956;BMP180;8594;52.052;8.354;2023-04-25T11:46:35;100358.00;;;10.60
16956;BMP180;8594;52.052;8.354;2023-04-25T11:49:03;100355.00;;;11.00
16956;BMP180;8594;52.052;8.354;2023-04-25T11:51:38;100348.00;;;11.30
16956;BMP180;8594;52.052;8.354;2023-04-25T11:54:05;100357.00;;;11.80
16956;BMP180;8594;52.052;8.354;2023-04-25T11:56:32;100358.00;;;12.00
16956;BMP180;8594;52.052;8.354;2023-04-25T11:59:01;100359.00;;;11.70
16956;BMP180;8594;52.052;8.354;2023-04-25T12:01:30;100367.00;;;11.80
16956;BMP180;8594;52.052;8.354;2023-04-25T12:03:58;100365.00;;;11.30
16956;BMP180;8594;52.052;8.354;2023-04-25T12:06:29;100374.00;;;11.30
16956;BMP180;8594;52.052;8.354;2023-04-25T12:09:00;100370.00;;;11.70
16956;BMP180;8594;52.052;8.354;2023-04-25T12:11:30;100371.00;;;11.80
16956;BMP180;8594;52.052;8.354;2023-04-25T12:14:02;100369.00;;;12.40
16956;BMP180;8594;52.052;8.354;2023-04-25T12:16:39;100368.00;;;12.30
16956;BMP180;8594;52.052;8.354;2023-04-25T12:19:06;100374.00;;;12.60
16956;BMP180;8594;52.052;8.354;2023-04-25T12:21:34;100375.00;;;12.70
16956;BMP180;8594;52.052;8.354;2023-04-25T12:24:10;100363.00;;;13.20
16956;BMP180;8594;52.052;8.354;2023-04-25T12:26:52;100362.00;;;13.50
16956;BMP180;8594;52.052;8.354;2023-04-25T12:29:22;100363.00;;;13.60
16956;BMP180;8594;52.052;8.354;2023-04-25T12:31:51;100364.00;;;14.20
16956;BMP180;8594;52.052;8.354;2023-04-25T12:34:18;100358.00;;;13.90
16956;BMP180;8594;52.052;8.354;2023-04-25T12:36:47;100371.00;;;14.20
16956;BMP180;8594;52.052;8.354;2023-04-25T12:39:15;100358.00;;;13.90
16956;BMP180;8594;52.052;8.354;2023-04-25T12:41:42;100354.00;;;13.60
16956;BMP180;8594;52.052;8.354;2023-04-25T12:44:11;100354.00;;;14.10
16956;BMP180;8594;52.052;8.354;2023-04-25T12:46:38;100347.00;;;14.00
16956;BMP180;8594;52.052;8.354;2023-04-25T12:49:06;100358.00;;;14.20
16956;BMP180;8594;52.052;8.354;2023-04-25T12:51:34;100359.00;;;14.00
16956;BMP180;8594;52.052;8.354;2023-04-25T12:54:05;100363.00;;;13.10
16956;BMP180;8594;52.052;8.354;2023-04-25T12:56:32;100365.00;;;13.40
16956;BMP180;8594;52.052;8.354;2023-04-25T12:58:59;100387.00;;;13.30
16956;BMP180;8594;52.052;8.354;2023-04-25T13:01:26;100397.00;;;12.30
16956;BMP180;8594;52.052;8.354;2023-04-25T13:03:53;100402.00;;;10.60
16956;BMP180;8594;52.052;8.354;2023-04-25T13:06:21;100420.00;;;10.30
16956;BMP180;8594;52.052;8.354;2023-04-25T13:08:48;100420.00;;;10.10
16956;BMP180;8594;52.052;8.354;2023-04-25T13:11:16;100422.00;;;10.20
16956;BMP180;8594;52.052;8.354;2023-04-25T13:13:44;100421.00;;;10.60
16956;BMP180;8594;52.052;8.354;2023-04-25T13:16:11;100419.00;;;10.20
16956;BMP180;8594;52.052;8.354;2023-04-25T13:18:39;100416.00;;;10.70
16956;BMP180;8594;52.052;8.354;2023-04-25T13:21:06;100415.00;;;10.80
16956;BMP180;8594;52.052;8.354;2023-04-25T13:23:33;100407.00;;;11.40
16956;BMP180;8594;52.052;8.354;2023-04-25T13:26:00;100405.00;;;12.10
16956;BMP180;8594;52.052;8.354;2023-04-25T13:28:28;100400.00;;;12.40
16956;BMP180;8594;52.052;8.354;2023-04-25T13:30:55;100400.00;;;12.40
16956;BMP180;8594;52.052;8.354;2023-04-25T13:33:22;100390.00;;;12.00
16956;BMP180;8594;52.052;8.354;2023-04-25T13:35:49;100386.00;;;12.50
16956;BMP180;8594;52.052;8.354;2023-04-25T13:38:20;100391.00;;;13.00
16956;BMP180;8594;52.052;8.354;2023-04-25T13:40:48;100387.00;;;13.30
16956;BMP180;8594;52.052;8.354;2023-04-25T13:43:16;100392.00;;;13.20
16956;BMP180;8594;52.052;8.354;2023-04-25T13:45:44;100394.00;;;13.50
16956;BMP180;8594;52.052;8.354;2023-04-25T13:48:11;100398.00;;;14.00
16956;BMP180;8594;52.052;8.354;2023-04-25T13:50:37;100384.00;;;13.90
16956;BMP180;8594;52.052;8.354;2023-04-25T13:53:04;100393.00;;;14.10
16956;BMP180;8594;52.052;8.354;2023-04-25T13:55:31;100399.00;;;13.90
16956;BMP180;8594;52.052;8.354;2023-04-25T13:57:58;100395.00;;;13.70
16956;BMP180;8594;52.052;8.354;2023-04-25T14:00:25;100381.00;;;13.50
16956;BMP180;8594;52.052;8.354;2023-04-25T14:02:53;100383.00;;;13.90
16956;BMP180;8594;52.052;8.354;2023-04-25T14:05:20;100396.00;;;13.00
16956;BMP180;8594;52.052;8.354;2023-04-25T14:07:48;100395.00;;;13.50
16956;BMP180;8594;52.052;8.354;2023-04-25T14:10:16;100395.00;;;13.10
16956;BMP180;8594;52.052;8.354;2023-04-25T14:12:42;100397.00;;;13.00
16956;BMP180;8594;52.052;8.354;2023-04-25T14:15:10;100395.00;;;13.20
16956;BMP180;8594;52.052;8.354;2023-04-25T14:17:37;100399.00;;;12.90
16956;BMP180;8594;52.052;8.354;2023-04-25T14:20:08;100400.00;;;13.30
16956;BMP180;8594;52.052;8.354;2023-04-25T14:22:36;100411.00;;;14.10